createdAt,value
2018-02-04T00:01:36.621Z,20.70
2018-02-04T00:04:04.076Z,20.60
2018-02-04T00:06:31.535Z,20.60
2018-02-04T00:08:59.754Z,20.60
2018-02-04T00:11:27.240Z,20.60
2018-02-04T00:13:54.717Z,20.60
2018-02-04T00:16:22.198Z,20.50
2018-02-04T00:18:50.807Z,20.50
2018-02-04T00:21:18.266Z,20.50
2018-02-04T00:23:45.759Z,20.50
2018-02-04T00:26:13.239Z,20.50
2018-02-04T00:28:40.707Z,20.50
2018-02-04T00:31:08.162Z,20.50
2018-02-04T00:33:36.415Z,20.40
2018-02-04T00:36:04.087Z,20.40
2018-02-04T00:38:31.559Z,20.40
2018-02-04T00:40:59.047Z,20.40
2018-02-04T00:43:26.509Z,20.40
2018-02-04T00:45:53.971Z,20.40
2018-02-04T00:48:21.548Z,20.30
2018-02-04T00:50:49.003Z,20.30
2018-02-04T00:53:16.869Z,20.30
2018-02-04T00:55:44.345Z,20.30
2018-02-04T00:58:11.807Z,20.30
2018-02-04T01:00:39.321Z,20.30
2018-02-04T01:03:06.789Z,20.20
2018-02-04T01:05:34.259Z,20.20
2018-02-04T01:08:01.743Z,20.20
2018-02-04T01:10:29.217Z,20.20
2018-02-04T01:12:57.490Z,20.10
2018-02-04T01:15:24.945Z,20.10
2018-02-04T01:17:52.415Z,20.20
2018-02-04T01:20:19.886Z,20.10
2018-02-04T01:22:47.409Z,20.10
2018-02-04T01:25:14.912Z,20.10
2018-02-04T01:27:43.136Z,20.00
2018-02-04T01:30:10.597Z,20.00
2018-02-04T01:32:38.095Z,20.00
2018-02-04T01:35:05.887Z,20.00
2018-02-04T01:37:33.389Z,19.90
2018-02-04T01:40:00.854Z,20.00
2018-02-04T01:42:28.336Z,19.90
2018-02-04T01:44:56.562Z,19.90
2018-02-04T01:47:24.021Z,19.90
2018-02-04T01:49:51.524Z,19.90
2018-02-04T01:52:19.005Z,19.90
2018-02-04T01:54:47.224Z,19.90
2018-02-04T01:57:14.676Z,19.70
2018-02-04T01:59:42.163Z,19.80
2018-02-04T02:02:09.654Z,19.80
2018-02-04T02:04:37.903Z,19.80
2018-02-04T02:07:05.537Z,19.80
2018-02-04T02:09:33.001Z,19.70
2018-02-04T02:12:00.474Z,19.70
2018-02-04T02:14:27.997Z,19.70
2018-02-04T02:16:55.446Z,19.70
2018-02-04T02:19:22.911Z,19.70
2018-02-04T02:21:50.396Z,19.60
2018-02-04T02:24:17.873Z,19.60
2018-02-04T02:26:46.875Z,19.60
2018-02-04T02:29:14.340Z,19.60
2018-02-04T02:31:42.572Z,19.60
2018-02-04T02:34:10.043Z,19.50
2018-02-04T02:36:37.509Z,19.60
2018-02-04T02:39:05.015Z,19.50
2018-02-04T02:41:32.480Z,19.50
2018-02-04T02:43:59.950Z,19.50
2018-02-04T02:46:27.427Z,19.50
2018-02-04T02:48:54.895Z,19.50
2018-02-04T02:51:22.449Z,19.50
2018-02-04T02:53:49.975Z,19.40
2018-02-04T02:56:17.446Z,19.40
2018-02-04T02:58:44.907Z,19.40
2018-02-04T03:01:12.363Z,19.40
2018-02-04T03:03:39.869Z,19.40
2018-02-04T03:06:07.362Z,19.30
2018-02-04T03:08:34.819Z,19.30
2018-02-04T03:11:02.296Z,19.30
2018-02-04T03:13:29.748Z,19.30
2018-02-04T03:15:57.255Z,19.30
2018-02-04T03:18:24.712Z,19.30
2018-02-04T03:20:52.169Z,19.30
2018-02-04T03:23:19.632Z,19.30
2018-02-04T03:25:47.094Z,19.30
2018-02-04T03:28:14.584Z,19.20
2018-02-04T03:30:42.118Z,19.20
2018-02-04T03:33:09.604Z,19.20
2018-02-04T03:35:37.054Z,19.20
2018-02-04T03:38:04.537Z,19.10
2018-02-04T03:40:32.015Z,19.10
2018-02-04T03:42:59.928Z,19.10
2018-02-04T03:45:28.142Z,19.10
2018-02-04T03:47:55.622Z,19.10
2018-02-04T03:50:23.151Z,19.10
2018-02-04T03:52:50.639Z,19.00
2018-02-04T03:55:18.117Z,19.00
2018-02-04T03:57:45.593Z,19.00
2018-02-04T04:00:13.060Z,19.00
2018-02-04T04:02:40.529Z,19.00
2018-02-04T04:05:08.030Z,19.00
2018-02-04T04:07:35.489Z,18.90
2018-02-04T04:10:03.025Z,18.90
2018-02-04T04:12:30.482Z,18.90
2018-02-04T04:14:57.945Z,18.90
2018-02-04T04:17:25.434Z,18.90
2018-02-04T04:19:52.897Z,18.90
2018-02-04T04:22:20.377Z,18.80
2018-02-04T04:24:47.839Z,18.80
2018-02-04T04:27:16.079Z,18.80
2018-02-04T04:29:43.576Z,18.80
2018-02-04T04:32:11.063Z,18.80
2018-02-04T04:34:38.553Z,18.80
2018-02-04T04:37:06.015Z,18.80
2018-02-04T04:39:33.479Z,18.80
2018-02-04T04:42:00.985Z,18.70
2018-02-04T04:44:28.467Z,18.80
2018-02-04T04:46:55.921Z,18.80
2018-02-04T04:49:23.385Z,18.80
2018-02-04T04:51:50.849Z,18.80
2018-02-04T04:54:18.332Z,18.90
2018-02-04T04:56:45.809Z,19.00
2018-02-04T04:59:13.276Z,19.00
2018-02-04T05:01:40.797Z,19.10
2018-02-04T05:04:08.261Z,19.10
2018-02-04T05:06:35.752Z,19.20
2018-02-04T05:09:03.245Z,19.30
2018-02-04T05:11:30.718Z,19.30
2018-02-04T05:13:58.173Z,19.40
2018-02-04T05:16:25.644Z,19.50
2018-02-04T05:18:53.164Z,19.50
2018-02-04T05:21:20.628Z,19.60
2018-02-04T05:23:48.096Z,19.60
2018-02-04T05:26:15.568Z,19.70
2018-02-04T05:28:43.045Z,19.70
2018-02-04T05:31:10.560Z,19.70
2018-02-04T05:33:38.021Z,19.70
2018-02-04T05:36:05.470Z,19.80
2018-02-04T05:38:32.917Z,19.70
2018-02-04T05:41:00.398Z,19.80
2018-02-04T05:43:27.886Z,19.90
2018-02-04T05:45:55.370Z,19.80
2018-02-04T05:48:23.597Z,19.90
2018-02-04T05:50:51.054Z,19.80
2018-02-04T05:53:18.534Z,19.90
2018-02-04T05:55:46.243Z,19.80
2018-02-04T05:58:13.699Z,19.90
2018-02-04T06:00:41.171Z,19.90
2018-02-04T06:03:08.672Z,19.90
2018-02-04T06:05:36.162Z,19.90
2018-02-04T06:08:04.418Z,19.90
2018-02-04T06:10:31.895Z,19.90
2018-02-04T06:12:59.599Z,19.90
2018-02-04T06:15:28.073Z,20.00
2018-02-04T06:17:55.549Z,20.00
2018-02-04T06:20:23.071Z,20.00
2018-02-04T06:22:50.589Z,20.00
2018-02-04T06:25:18.065Z,20.00
2018-02-04T06:27:45.583Z,20.00
2018-02-04T06:30:13.069Z,20.00
2018-02-04T06:32:40.567Z,20.10
2018-02-04T06:35:08.068Z,20.00
2018-02-04T06:37:35.548Z,20.10
2018-02-04T06:40:03.772Z,20.10
2018-02-04T06:42:31.287Z,20.10
2018-02-04T06:44:58.733Z,20.10
2018-02-04T06:47:26.207Z,20.10
2018-02-04T06:49:54.444Z,20.10
2018-02-04T06:52:21.905Z,20.10
2018-02-04T06:54:49.414Z,20.10
2018-02-04T06:57:17.644Z,20.00
2018-02-04T06:59:45.101Z,20.00
2018-02-04T07:02:12.569Z,20.00
2018-02-04T07:04:40.049Z,20.00
2018-02-04T07:07:07.550Z,20.10
2018-02-04T07:09:35.014Z,20.10
2018-02-04T07:12:02.506Z,20.10
2018-02-04T07:14:30.025Z,20.20
2018-02-04T07:16:57.926Z,20.30
2018-02-04T07:19:25.433Z,20.30
2018-02-04T07:21:53.735Z,20.30
2018-02-04T07:24:21.214Z,20.30
2018-02-04T07:26:48.720Z,20.30
2018-02-04T07:29:16.361Z,20.40
2018-02-04T07:31:43.878Z,20.40
2018-02-04T07:34:11.398Z,20.40
2018-02-04T07:36:38.897Z,20.40
2018-02-04T07:39:06.415Z,20.40
2018-02-04T07:41:33.893Z,20.30
2018-02-04T07:44:01.388Z,20.40
2018-02-04T07:46:28.880Z,20.40
2018-02-04T07:48:56.367Z,20.40
2018-02-04T07:51:24.625Z,20.40
2018-02-04T07:53:52.096Z,20.40
2018-02-04T07:56:20.352Z,20.30
2018-02-04T07:58:48.611Z,20.30
2018-02-04T08:01:16.097Z,20.30
2018-02-04T08:03:44.388Z,20.30
2018-02-04T08:06:12.648Z,20.30
2018-02-04T08:08:40.145Z,20.30
2018-02-04T08:11:07.639Z,20.20
2018-02-04T08:13:35.143Z,20.10
2018-02-04T08:16:02.659Z,20.20
2018-02-04T08:18:30.373Z,20.20
2018-02-04T08:20:58.811Z,20.20
2018-02-04T08:23:26.285Z,20.10
2018-02-04T08:25:53.939Z,20.20
2018-02-04T08:28:21.565Z,20.20
2018-02-04T08:30:49.029Z,20.10
2018-02-04T08:33:16.481Z,20.10
2018-02-04T08:35:43.991Z,20.10
2018-02-04T08:38:11.466Z,20.10
2018-02-04T08:40:38.980Z,19.90
2018-02-04T08:43:06.498Z,19.60
2018-02-04T08:45:34.229Z,19.30
2018-02-04T08:48:01.709Z,19.10
2018-02-04T08:50:29.266Z,19.00
2018-02-04T08:52:56.749Z,19.30
2018-02-04T08:55:24.294Z,19.50
2018-02-04T08:57:51.796Z,19.80
2018-02-04T09:00:20.058Z,20.00
2018-02-04T09:02:47.543Z,20.00
2018-02-04T09:05:15.038Z,20.00
2018-02-04T09:07:42.561Z,20.20
2018-02-04T09:10:10.032Z,20.20
2018-02-04T09:12:37.522Z,20.20
2018-02-04T09:15:05.776Z,20.30
2018-02-04T09:17:34.011Z,20.20
2018-02-04T09:20:01.766Z,20.20
2018-02-04T09:22:29.224Z,19.80
2018-02-04T09:24:56.712Z,19.60
2018-02-04T09:27:24.262Z,19.70
2018-02-04T09:29:51.742Z,19.80
2018-02-04T09:32:19.267Z,19.80
2018-02-04T09:34:46.741Z,19.70
2018-02-04T09:37:14.261Z,19.80
2018-02-04T09:39:41.742Z,20.00
2018-02-04T09:42:09.229Z,20.10
2018-02-04T09:44:37.526Z,20.30
2018-02-04T09:47:05.765Z,19.90
2018-02-04T09:49:33.259Z,19.90
2018-02-04T09:52:01.506Z,19.60
2018-02-04T09:54:29.004Z,19.50
2018-02-04T09:56:57.296Z,19.70
2018-02-04T09:59:24.783Z,19.70
2018-02-04T10:01:52.261Z,19.70
2018-02-04T10:04:19.825Z,19.80
2018-02-04T10:06:47.319Z,19.90
2018-02-04T10:09:15.553Z,20.30
2018-02-04T10:11:43.031Z,20.30
2018-02-04T10:14:10.499Z,20.50
2018-02-04T10:16:38.760Z,20.30
2018-02-04T10:19:06.265Z,20.30
2018-02-04T10:21:33.860Z,20.20
2018-02-04T10:24:01.344Z,20.00
2018-02-04T10:26:29.602Z,19.90
2018-02-04T10:28:57.091Z,19.90
2018-02-04T10:31:24.595Z,19.90
2018-02-04T10:33:52.054Z,19.90
2018-02-04T10:36:19.633Z,19.90
2018-02-04T10:38:47.107Z,19.80
2018-02-04T10:41:14.610Z,19.70
2018-02-04T10:43:42.110Z,19.80
2018-02-04T10:46:09.627Z,19.90
2018-02-04T10:48:37.312Z,19.90
2018-02-04T10:51:10.387Z,19.90
2018-02-04T10:53:37.887Z,19.90
2018-02-04T10:56:05.387Z,19.90
2018-02-04T10:58:32.867Z,19.90
2018-02-04T11:01:00.388Z,19.90
2018-02-04T11:03:28.649Z,19.60
2018-02-04T11:05:56.167Z,19.60
2018-02-04T11:08:23.684Z,19.60
2018-02-04T11:10:52.668Z,20.00
2018-02-04T11:13:20.950Z,20.00
2018-02-04T11:15:48.426Z,20.00
2018-02-04T11:18:16.705Z,20.10
2018-02-04T11:20:44.969Z,20.10
2018-02-04T11:23:12.449Z,20.10
2018-02-04T11:25:39.984Z,20.20
2018-02-04T11:28:07.473Z,20.20
2018-02-04T11:30:34.986Z,20.20
2018-02-04T11:33:02.474Z,20.30
2018-02-04T11:35:30.790Z,20.30
2018-02-04T11:37:59.604Z,20.30
2018-02-04T11:40:27.109Z,20.30
2018-02-04T11:42:55.361Z,20.30
2018-02-04T11:45:23.617Z,20.40
2018-02-04T11:47:51.127Z,20.30
2018-02-04T11:50:19.380Z,20.30
2018-02-04T11:52:46.866Z,20.30
2018-02-04T11:55:14.388Z,20.20
2018-02-04T11:57:42.686Z,20.00
2018-02-04T12:00:10.180Z,20.00
2018-02-04T12:02:37.657Z,20.10
2018-02-04T12:05:05.126Z,20.10
2018-02-04T12:07:32.791Z,20.10
2018-02-04T12:10:00.299Z,20.10
2018-02-04T12:12:27.790Z,20.20
2018-02-04T12:14:55.280Z,20.20
2018-02-04T12:17:22.752Z,20.20
2018-02-04T12:19:50.259Z,20.20
2018-02-04T12:22:17.753Z,20.20
2018-02-04T12:24:45.224Z,20.20
2018-02-04T12:27:12.852Z,20.20
2018-02-04T12:29:40.435Z,20.20
2018-02-04T12:32:07.916Z,20.20
2018-02-04T12:34:35.410Z,20.20
2018-02-04T12:37:02.895Z,20.20
2018-02-04T12:39:30.370Z,20.20
2018-02-04T12:41:57.826Z,20.20
2018-02-04T12:44:25.298Z,20.20
2018-02-04T12:46:52.975Z,20.30
2018-02-04T12:49:21.211Z,20.30
2018-02-04T12:51:48.676Z,20.30
2018-02-04T12:54:16.167Z,20.30
2018-02-04T12:56:44.389Z,20.20
2018-02-04T12:59:11.886Z,20.20
2018-02-04T13:01:40.257Z,20.30
2018-02-04T13:04:07.773Z,20.20
2018-02-04T13:06:35.233Z,20.20
2018-02-04T13:09:02.692Z,20.30
2018-02-04T13:11:30.178Z,20.30
2018-02-04T13:13:57.649Z,20.30
2018-02-04T13:16:25.123Z,20.30
2018-02-04T13:18:53.348Z,20.30
2018-02-04T13:21:20.829Z,20.30
2018-02-04T13:23:48.326Z,20.30
2018-02-04T13:26:15.817Z,20.30
2018-02-04T13:28:43.273Z,20.30
2018-02-04T13:31:10.827Z,20.30
2018-02-04T13:33:38.310Z,20.30
2018-02-04T13:36:05.812Z,20.30
2018-02-04T13:38:34.053Z,20.30
2018-02-04T13:41:01.527Z,20.30
2018-02-04T13:43:28.986Z,20.40
2018-02-04T13:45:56.624Z,20.40
2018-02-04T13:48:24.150Z,20.30
2018-02-04T13:50:51.630Z,20.40
2018-02-04T13:53:19.089Z,20.40
2018-02-04T13:55:46.543Z,20.40
2018-02-04T13:58:14.006Z,20.30
2018-02-04T14:00:41.508Z,20.30
2018-02-04T14:03:09.008Z,20.40
2018-02-04T14:05:36.473Z,20.40
2018-02-04T14:08:03.936Z,20.40
2018-02-04T14:10:31.401Z,20.40
2018-02-04T14:12:58.893Z,20.40
2018-02-04T14:15:26.379Z,20.40
2018-02-04T14:17:53.857Z,20.40
2018-02-04T14:20:21.341Z,20.40
2018-02-04T14:22:49.619Z,20.40
2018-02-04T14:25:17.090Z,20.30
2018-02-04T14:27:44.547Z,20.40
2018-02-04T14:34:47.616Z,20.30
2018-02-04T14:37:15.095Z,20.30
2018-02-04T14:39:42.569Z,20.40
2018-02-04T14:42:10.080Z,20.40
2018-02-04T14:44:37.546Z,20.40
2018-02-04T14:47:05.030Z,20.40
2018-02-04T14:49:32.496Z,20.40
2018-02-04T14:51:59.954Z,20.40
2018-02-04T14:54:27.454Z,20.40
2018-02-04T14:56:55.683Z,20.40
2018-02-04T14:59:23.143Z,20.30
2018-02-04T15:01:50.617Z,20.40
2018-02-04T15:04:18.082Z,20.40
2018-02-04T15:06:45.585Z,20.30
2018-02-04T15:09:13.056Z,20.40
2018-02-04T15:11:40.683Z,20.40
2018-02-04T15:14:08.149Z,20.30
2018-02-04T15:16:36.391Z,20.40
2018-02-04T15:19:04.046Z,20.40
2018-02-04T15:21:31.530Z,20.40
2018-02-04T15:23:59.002Z,20.40
2018-02-04T15:26:26.474Z,20.40
2018-02-04T15:28:54.728Z,20.40
2018-02-04T15:31:22.365Z,20.40
2018-02-04T15:33:49.845Z,20.40
2018-02-04T15:36:17.337Z,20.40
2018-02-04T15:38:45.568Z,20.40
2018-02-04T15:41:13.041Z,20.40
2018-02-04T15:43:40.819Z,20.40
2018-02-04T15:46:08.278Z,20.40
2018-02-04T15:48:35.741Z,20.40
2018-02-04T15:51:03.261Z,20.40
2018-02-04T15:53:30.726Z,20.40
2018-02-04T15:55:58.223Z,20.40
2018-02-04T15:58:25.704Z,20.40
2018-02-04T16:00:53.168Z,20.40
2018-02-04T16:03:20.628Z,20.40
2018-02-04T16:05:48.198Z,20.40
2018-02-04T16:08:15.712Z,20.40
2018-02-04T16:10:43.954Z,20.40
2018-02-04T16:13:11.435Z,20.40
2018-02-04T16:15:39.044Z,20.30
2018-02-04T16:18:06.537Z,20.30
2018-02-04T16:20:34.335Z,20.30
2018-02-04T16:23:02.580Z,20.40
2018-02-04T16:25:31.564Z,20.30
2018-02-04T16:27:59.038Z,20.40
2018-02-04T16:30:26.525Z,20.30
2018-02-04T16:32:54.131Z,20.30
2018-02-04T16:35:21.624Z,20.40
2018-02-04T16:37:49.130Z,20.30
2018-02-04T16:40:16.696Z,20.40
2018-02-04T16:42:44.156Z,20.40
2018-02-04T16:45:11.674Z,20.40
2018-02-04T16:47:39.929Z,20.40
2018-02-04T16:50:08.216Z,20.40
2018-02-04T16:52:35.691Z,20.40
2018-02-04T16:55:03.986Z,20.40
2018-02-04T16:57:31.476Z,20.30
2018-02-04T16:59:58.963Z,20.40
2018-02-04T17:02:26.491Z,20.40
2018-02-04T17:04:53.962Z,20.40
2018-02-04T17:07:21.420Z,20.40
2018-02-04T17:09:48.917Z,20.40
2018-02-04T17:12:17.144Z,20.40
2018-02-04T17:14:44.606Z,20.40
2018-02-04T17:17:12.123Z,20.40
2018-02-04T17:19:40.349Z,20.40
2018-02-04T17:22:07.841Z,20.40
2018-02-04T17:24:36.288Z,20.40
2018-02-04T17:27:03.753Z,20.40
2018-02-04T17:29:31.475Z,20.40
2018-02-04T17:31:58.931Z,20.40
2018-02-04T17:34:26.454Z,20.40
2018-02-04T17:36:54.802Z,20.40
2018-02-04T17:39:22.266Z,20.40
2018-02-04T17:41:49.751Z,20.40
2018-02-04T17:44:17.226Z,20.40
2018-02-04T17:46:45.490Z,20.40
2018-02-04T17:49:13.726Z,20.40
2018-02-04T17:51:41.201Z,20.40
2018-02-04T17:54:08.687Z,20.40
2018-02-04T17:56:36.917Z,20.40
2018-02-04T17:59:04.424Z,20.40
2018-02-04T18:01:32.663Z,20.40
2018-02-04T18:04:00.124Z,20.40
2018-02-04T18:06:27.609Z,20.40
2018-02-04T18:08:55.842Z,20.40
2018-02-04T18:11:23.798Z,20.40
2018-02-04T18:13:51.275Z,20.40
2018-02-04T18:16:18.821Z,20.40
2018-02-04T18:18:46.276Z,20.40
2018-02-04T18:21:13.732Z,20.40
2018-02-04T18:23:41.215Z,20.40
2018-02-04T18:26:08.686Z,20.40
2018-02-04T18:28:36.151Z,20.40
2018-02-04T18:31:03.622Z,20.40
2018-02-04T18:33:31.079Z,20.40
2018-02-04T18:35:59.357Z,20.40
2018-02-04T18:38:26.822Z,20.40
2018-02-04T18:40:55.056Z,20.30
2018-02-04T18:43:22.709Z,20.40
2018-02-04T18:45:50.179Z,20.40
2018-02-04T18:48:17.683Z,20.40
2018-02-04T18:50:45.912Z,20.40
2018-02-04T18:53:13.368Z,20.40
2018-02-04T18:55:40.833Z,20.40
2018-02-04T18:58:08.308Z,20.40
2018-02-04T19:00:35.800Z,20.40
2018-02-04T19:03:03.277Z,20.40
2018-02-04T19:05:30.749Z,20.30
2018-02-04T19:07:58.216Z,20.40
2018-02-04T19:10:25.665Z,20.40
2018-02-04T19:12:53.170Z,20.40
2018-02-04T19:15:20.677Z,20.40
2018-02-04T19:17:48.141Z,20.40
2018-02-04T19:20:15.617Z,20.40
2018-02-04T19:22:43.107Z,20.40
2018-02-04T19:25:11.403Z,20.40
2018-02-04T19:27:38.876Z,20.30
2018-02-04T19:30:06.347Z,20.30
2018-02-04T19:32:33.822Z,20.40
2018-02-04T19:35:01.272Z,20.40
2018-02-04T19:37:28.776Z,20.30
2018-02-04T19:39:56.237Z,20.30
2018-02-04T19:42:23.729Z,20.40
2018-02-04T19:44:51.234Z,20.40
2018-02-04T19:47:18.718Z,20.40
2018-02-04T19:49:46.988Z,20.50
2018-02-04T19:52:15.245Z,20.50
2018-02-04T19:54:42.926Z,20.50
2018-02-04T19:57:11.174Z,20.70
2018-02-04T19:59:38.664Z,20.60
2018-02-04T20:02:06.971Z,20.80
2018-02-04T20:04:35.224Z,20.80
2018-02-04T20:07:03.662Z,20.90
2018-02-04T20:09:31.161Z,20.80
2018-02-04T20:11:59.421Z,21.00
2018-02-04T20:14:26.902Z,20.90
2018-02-04T20:16:55.125Z,21.10
2018-02-04T20:19:22.600Z,21.00
2018-02-04T20:21:50.098Z,21.00
2018-02-04T20:24:17.627Z,21.10
2018-02-04T20:26:45.187Z,21.10
2018-02-04T20:29:12.682Z,21.10
2018-02-04T20:31:40.181Z,21.10
2018-02-04T20:34:07.729Z,21.10
2018-02-04T20:36:35.249Z,21.10
2018-02-04T20:39:03.522Z,21.10
2018-02-04T20:41:30.958Z,21.10
2018-02-04T20:43:59.203Z,21.10
2018-02-04T20:46:26.674Z,21.10
2018-02-04T20:48:54.172Z,21.10
2018-02-04T20:51:21.655Z,21.10
2018-02-04T20:53:49.130Z,21.10
2018-02-04T20:56:16.624Z,21.10
2018-02-04T20:58:45.645Z,21.10
2018-02-04T21:01:13.930Z,21.10
2018-02-04T21:03:41.483Z,21.10
2018-02-04T21:06:08.985Z,21.10
2018-02-04T21:08:36.507Z,21.00
2018-02-04T21:11:04.767Z,21.00
2018-02-04T21:13:33.023Z,21.00
2018-02-04T21:16:00.503Z,21.00
2018-02-04T21:18:28.773Z,20.90
2018-02-04T21:20:56.273Z,20.90
2018-02-04T21:23:23.741Z,20.80
2018-02-04T21:25:51.245Z,20.70
2018-02-04T21:28:20.411Z,20.60
2018-02-04T21:30:47.925Z,20.60
2018-02-04T21:33:16.183Z,20.60
2018-02-04T21:35:44.438Z,20.50
2018-02-04T21:38:11.929Z,20.50
2018-02-04T21:40:40.161Z,20.50
2018-02-04T21:43:07.656Z,20.50
2018-02-04T21:45:35.158Z,20.50
2018-02-04T21:48:02.629Z,20.50
2018-02-04T21:50:30.118Z,20.40
2018-02-04T21:52:57.618Z,20.40
2018-02-04T21:55:25.132Z,20.40
2018-02-04T21:57:52.608Z,20.30
2018-02-04T22:00:20.123Z,20.30
2018-02-04T22:02:47.607Z,20.50
2018-02-04T22:05:15.114Z,20.50
2018-02-04T22:07:42.630Z,20.50
2018-02-04T22:10:10.097Z,20.60
2018-02-04T22:12:37.714Z,20.60
2018-02-04T22:15:05.176Z,20.60
2018-02-04T22:17:32.644Z,20.60
2018-02-04T22:20:00.149Z,20.60
2018-02-04T22:22:28.004Z,20.60
2018-02-04T22:24:55.455Z,20.60
2018-02-04T22:27:22.913Z,20.60
2018-02-04T22:29:50.560Z,20.60
2018-02-04T22:32:18.061Z,20.60
2018-02-04T22:34:46.317Z,20.50
2018-02-04T22:37:13.793Z,20.50
2018-02-04T22:39:42.032Z,20.60
2018-02-04T22:42:09.713Z,20.50
2018-02-04T22:44:37.200Z,20.60
2018-02-04T22:47:05.429Z,20.50
2018-02-04T22:49:32.885Z,20.50
2018-02-04T22:52:00.374Z,20.50
2018-02-04T22:54:28.625Z,20.50
2018-02-04T22:56:56.139Z,20.50
2018-02-04T22:59:23.593Z,20.50
2018-02-04T23:01:51.051Z,20.50
2018-02-04T23:04:18.523Z,20.50
2018-02-04T23:06:45.982Z,20.50
2018-02-04T23:09:13.463Z,20.50
2018-02-04T23:11:40.931Z,20.50
2018-02-04T23:14:08.470Z,20.40
2018-02-04T23:16:35.970Z,20.40
2018-02-04T23:19:03.459Z,20.40
2018-02-04T23:21:30.925Z,20.40
2018-02-04T23:23:58.536Z,20.40
2018-02-04T23:26:26.000Z,20.40
2018-02-04T23:28:53.529Z,20.30
2018-02-04T23:31:20.997Z,20.40
2018-02-04T23:33:48.466Z,20.40
2018-02-04T23:36:15.926Z,20.30
2018-02-04T23:38:43.396Z,20.30
2018-02-04T23:41:11.664Z,20.30
2018-02-04T23:43:39.136Z,20.30
2018-02-04T23:46:06.674Z,20.30
2018-02-04T23:48:34.133Z,20.30
2018-02-04T23:51:01.598Z,20.30
2018-02-04T23:53:29.094Z,20.20
2018-02-04T23:55:56.552Z,20.20
2018-02-04T23:58:24.012Z,20.20
